createdAt,value
2022-09-15T00:00:03.756Z,21.00
2022-09-15T00:02:36.780Z,20.90
2022-09-15T00:05:10.798Z,20.80
2022-09-15T00:07:37.711Z,20.60
2022-09-15T00:10:12.782Z,20.60
2022-09-15T00:12:39.723Z,20.70
2022-09-15T00:15:13.763Z,20.80
2022-09-15T00:17:42.264Z,20.80
2022-09-15T00:20:17.109Z,20.90
2022-09-15T00:22:44.275Z,21.10
2022-09-15T00:25:17.792Z,21.20
2022-09-15T00:27:57.810Z,21.30
2022-09-15T00:30:31.891Z,21.10
2022-09-15T00:33:05.862Z,21.20
2022-09-15T00:35:37.061Z,21.10
2022-09-15T00:38:10.801Z,21.10
2022-09-15T00:40:58.042Z,21.10
2022-09-15T00:43:52.969Z,20.90
2022-09-15T00:46:40.832Z,20.70
2022-09-15T00:49:18.834Z,20.40
2022-09-15T00:52:03.996Z,20.20
2022-09-15T00:54:56.812Z,20.20
2022-09-15T00:57:33.989Z,20.20
2022-09-15T01:00:08.842Z,20.20
2022-09-15T01:02:36.477Z,20.10
2022-09-15T01:05:14.924Z,19.90
2022-09-15T01:08:11.326Z,19.80
2022-09-15T01:10:46.922Z,19.70
2022-09-15T01:13:14.592Z,19.70
2022-09-15T01:16:06.944Z,19.80
2022-09-15T01:19:05.764Z,19.90
2022-09-15T01:21:47.822Z,20.00
2022-09-15T01:24:49.837Z,20.10
2022-09-15T01:28:04.999Z,20.00
2022-09-15T01:30:50.811Z,19.90
2022-09-15T01:33:55.829Z,19.90
2022-09-15T01:36:34.807Z,20.20
2022-09-15T01:39:16.597Z,20.20
2022-09-15T01:41:53.877Z,20.20
2022-09-15T01:44:25.519Z,20.20
2022-09-15T01:47:07.869Z,20.30
2022-09-15T01:49:59.311Z,20.30
2022-09-15T01:52:32.812Z,20.30
2022-09-15T01:55:10.242Z,20.30
2022-09-15T01:57:43.825Z,20.10
2022-09-15T02:00:11.622Z,20.00
2022-09-15T02:02:49.846Z,19.90
2022-09-15T02:05:35.927Z,19.80
2022-09-15T02:08:18.861Z,19.60
2022-09-15T02:11:15.974Z,19.50
2022-09-15T02:14:13.856Z,19.10
2022-09-15T02:16:50.892Z,19.00
2022-09-15T02:19:42.853Z,19.00
2022-09-15T02:22:26.218Z,19.00
2022-09-15T02:25:22.879Z,19.00
2022-09-15T02:27:51.934Z,19.10
2022-09-15T02:30:25.880Z,19.00
2022-09-15T02:32:58.191Z,19.00
2022-09-15T02:35:32.861Z,19.10
2022-09-15T02:37:59.941Z,19.20
2022-09-15T02:40:28.296Z,19.10
2022-09-15T02:43:06.874Z,19.00
2022-09-15T02:45:39.915Z,18.90
2022-09-15T02:48:06.804Z,18.70
2022-09-15T02:50:39.869Z,18.60
2022-09-15T02:53:06.873Z,18.60
2022-09-15T02:55:40.871Z,18.60
2022-09-15T02:58:07.736Z,18.70
2022-09-15T03:00:40.961Z,18.80
2022-09-15T03:03:14.895Z,19.00
2022-09-15T03:05:41.759Z,19.00
2022-09-15T03:08:14.876Z,19.10
2022-09-15T03:10:41.724Z,19.00
2022-09-15T03:13:14.881Z,18.90
2022-09-15T03:15:47.856Z,18.80
2022-09-15T03:18:14.789Z,18.70
2022-09-15T03:20:47.874Z,18.70
2022-09-15T03:23:14.734Z,18.80
2022-09-15T03:25:41.587Z,18.90
2022-09-15T03:28:14.883Z,19.00
2022-09-15T03:30:41.796Z,18.80
2022-09-15T03:33:14.897Z,18.80
2022-09-15T03:35:41.841Z,18.80
2022-09-15T03:38:14.925Z,18.90
2022-09-15T03:40:42.029Z,18.70
2022-09-15T03:43:10.289Z,18.60
2022-09-15T03:45:44.009Z,18.60
2022-09-15T03:48:10.910Z,18.50
2022-09-15T03:50:43.919Z,18.50
2022-09-15T03:53:16.936Z,18.60
2022-09-15T03:55:51.916Z,18.60
2022-09-15T03:58:21.461Z,18.70
2022-09-15T04:00:55.037Z,18.60
2022-09-15T04:03:22.394Z,18.50
2022-09-15T04:05:56.017Z,18.30
2022-09-15T04:08:29.887Z,18.20
2022-09-15T04:10:57.569Z,18.20
2022-09-15T04:13:30.922Z,18.20
2022-09-15T04:16:08.985Z,18.30
2022-09-15T04:18:42.913Z,18.20
2022-09-15T04:21:13.775Z,18.20
2022-09-15T04:23:47.947Z,18.20
2022-09-15T04:26:28.649Z,18.20
2022-09-15T04:29:04.519Z,18.10
2022-09-15T04:31:33.244Z,18.10
2022-09-15T04:34:06.921Z,18.00
2022-09-15T04:36:34.152Z,17.90
2022-09-15T04:39:01.409Z,17.90
2022-09-15T04:41:34.974Z,18.00
2022-09-15T04:44:02.334Z,18.10
2022-09-15T04:46:35.989Z,18.10
2022-09-15T04:49:09.922Z,17.90
2022-09-15T04:51:36.904Z,17.70
2022-09-15T04:54:09.939Z,17.70
2022-09-15T04:56:36.830Z,17.60
2022-09-15T04:59:10.029Z,17.60
2022-09-15T05:01:42.980Z,17.60
2022-09-15T05:04:10.519Z,17.50
2022-09-15T05:06:44.018Z,17.50
2022-09-15T05:09:12.867Z,17.50
2022-09-15T05:11:46.964Z,17.50
2022-09-15T05:14:19.964Z,17.50
2022-09-15T05:16:47.051Z,17.40
2022-09-15T05:19:20.026Z,17.50
2022-09-15T05:21:47.247Z,17.70
2022-09-15T05:24:20.973Z,17.90
2022-09-15T05:26:53.959Z,18.00
2022-09-15T05:29:26.975Z,18.10
2022-09-15T05:31:53.873Z,18.20
2022-09-15T05:34:26.961Z,18.10
2022-09-15T05:36:53.841Z,18.00
2022-09-15T05:39:27.001Z,18.10
2022-09-15T05:41:53.882Z,18.10
2022-09-15T05:44:20.776Z,18.20
2022-09-15T05:46:55.049Z,18.30
2022-09-15T05:49:27.950Z,18.40
2022-09-15T05:52:01.946Z,18.60
2022-09-15T05:54:28.817Z,18.90
2022-09-15T05:57:02.002Z,19.10
2022-09-15T05:59:36.820Z,19.20
2022-09-15T06:02:10.029Z,19.20
2022-09-15T06:04:36.881Z,19.10
2022-09-15T06:07:09.954Z,19.10
2022-09-15T06:09:36.786Z,19.20
2022-09-15T06:12:09.972Z,19.20
2022-09-15T06:14:36.802Z,19.20
2022-09-15T06:17:03.727Z,19.20
2022-09-15T06:19:36.982Z,19.30
2022-09-15T06:22:03.835Z,19.40
2022-09-15T06:24:44.003Z,19.60
2022-09-15T06:27:10.871Z,19.80
2022-09-15T06:29:44.035Z,20.10
2022-09-15T06:32:10.920Z,20.20
2022-09-15T06:34:37.859Z,21.40
2022-09-15T06:37:11.055Z,25.30
2022-09-15T06:39:38.067Z,28.50
2022-09-15T06:42:13.756Z,30.90
2022-09-15T06:44:40.931Z,33.10
2022-09-15T06:47:07.827Z,34.50
2022-09-15T06:49:41.051Z,34.90
2022-09-15T06:52:08.324Z,35.40
2022-09-15T06:54:42.029Z,35.90
2022-09-15T06:57:15.085Z,36.40
2022-09-15T06:59:42.052Z,36.60
2022-09-15T07:02:16.141Z,36.10
2022-09-15T07:04:43.112Z,34.90
2022-09-15T07:07:16.077Z,36.20
2022-09-15T07:09:46.069Z,36.60
2022-09-15T07:12:22.054Z,37.20
2022-09-15T07:14:55.043Z,36.80
2022-09-15T07:17:22.067Z,37.50
2022-09-15T07:19:55.120Z,37.50
2022-09-15T07:22:22.057Z,37.90
2022-09-15T07:24:55.071Z,38.50
2022-09-15T07:27:22.109Z,38.70
2022-09-15T07:29:55.080Z,38.70
2022-09-15T07:32:22.073Z,38.40
2022-09-15T07:34:58.238Z,38.50
2022-09-15T07:37:25.449Z,39.00
2022-09-15T07:39:59.148Z,38.80
2022-09-15T07:42:35.411Z,38.20
2022-09-15T07:45:02.635Z,38.40
2022-09-15T07:47:36.129Z,38.40
2022-09-15T07:50:03.347Z,38.50
2022-09-15T07:52:37.079Z,38.60
2022-09-15T07:55:04.217Z,37.70
2022-09-15T07:57:38.059Z,37.10
2022-09-15T08:00:12.138Z,37.20
2022-09-15T08:02:39.006Z,38.00
2022-09-15T08:05:13.139Z,38.30
2022-09-15T08:07:40.134Z,38.00
2022-09-15T08:10:14.094Z,38.40
2022-09-15T08:12:40.991Z,38.50
2022-09-15T08:15:15.167Z,38.70
2022-09-15T08:17:48.106Z,38.40
2022-09-15T08:20:15.161Z,38.30
2022-09-15T08:22:48.145Z,38.70
2022-09-15T08:25:15.204Z,38.20
2022-09-15T08:27:49.137Z,37.90
2022-09-15T08:30:23.106Z,37.80
2022-09-15T08:32:50.257Z,37.70
2022-09-15T08:35:24.141Z,37.30
2022-09-15T08:37:53.630Z,37.30
2022-09-15T08:40:39.156Z,37.20
2022-09-15T08:43:23.858Z,36.90
2022-09-15T08:46:02.206Z,37.30
2022-09-15T08:48:36.479Z,36.70
2022-09-15T08:51:13.156Z,36.80
2022-09-15T08:53:46.719Z,36.70
2022-09-15T08:56:24.214Z,36.50
2022-09-15T08:58:51.144Z,36.10
2022-09-15T09:01:39.254Z,36.10
2022-09-15T09:04:18.045Z,35.70
2022-09-15T09:07:34.214Z,35.40
2022-09-15T09:10:35.577Z,35.40
2022-09-15T09:13:15.166Z,34.90
2022-09-15T09:16:41.201Z,34.50
2022-09-15T09:19:57.200Z,34.10
2022-09-15T09:22:25.941Z,34.20
2022-09-15T09:25:11.575Z,34.10
2022-09-15T09:27:55.171Z,33.90
2022-09-15T09:30:23.248Z,33.50
2022-09-15T09:33:13.179Z,33.30
2022-09-15T09:35:56.171Z,33.20
2022-09-15T09:38:35.189Z,32.80
2022-09-15T09:41:02.931Z,32.80
2022-09-15T09:43:36.164Z,32.90
2022-09-15T09:46:09.273Z,33.00
2022-09-15T09:48:43.216Z,32.90
2022-09-15T09:52:01.185Z,32.90
2022-09-15T09:54:28.691Z,32.60
2022-09-15T09:57:20.237Z,32.00
2022-09-15T09:59:49.075Z,31.90
2022-09-15T10:02:24.279Z,31.60
2022-09-15T10:05:03.365Z,31.60
2022-09-15T10:07:37.179Z,31.40
2022-09-15T10:10:04.436Z,31.50
2022-09-15T10:12:45.236Z,31.00
2022-09-15T10:15:27.314Z,31.00
2022-09-15T10:18:01.200Z,30.80
2022-09-15T10:20:40.174Z,30.80
2022-09-15T10:23:38.283Z,30.80
2022-09-15T10:26:31.074Z,30.90
2022-09-15T10:29:24.283Z,31.20
2022-09-15T10:31:51.394Z,31.10
2022-09-15T10:34:38.216Z,31.20
2022-09-15T10:37:37.951Z,31.40
2022-09-15T10:40:40.200Z,31.40
2022-09-15T10:43:31.333Z,31.50
2022-09-15T10:46:20.291Z,31.60
2022-09-15T10:49:12.867Z,31.60
2022-09-15T10:52:16.240Z,31.30
2022-09-15T10:55:36.761Z,31.40
2022-09-15T10:58:24.969Z,31.40
2022-09-15T11:01:24.284Z,31.60
2022-09-15T11:04:15.219Z,31.70
2022-09-15T11:07:00.334Z,31.80
2022-09-15T11:10:23.231Z,31.70
2022-09-15T11:13:09.627Z,31.90
2022-09-15T11:16:00.329Z,31.80
2022-09-15T11:18:46.475Z,31.90
2022-09-15T11:21:27.349Z,31.80
2022-09-15T11:25:00.256Z,31.70
2022-09-15T11:28:09.233Z,31.70
2022-09-15T11:31:12.369Z,31.70
2022-09-15T11:34:00.346Z,31.50
2022-09-15T11:36:54.275Z,31.40
2022-09-15T11:39:24.741Z,31.50
2022-09-15T11:42:24.266Z,31.70
2022-09-15T11:44:51.126Z,31.70
2022-09-15T11:47:46.290Z,31.40
2022-09-15T11:50:21.972Z,31.30
2022-09-15T11:53:31.276Z,31.50
2022-09-15T11:56:27.259Z,31.70
2022-09-15T11:59:37.341Z,31.70
2022-09-15T12:02:35.176Z,31.50
2022-09-15T12:05:28.239Z,31.40
2022-09-15T12:08:23.946Z,31.20
2022-09-15T12:11:00.285Z,31.20
2022-09-15T12:13:40.268Z,31.10
2022-09-15T12:16:07.151Z,31.10
2022-09-15T12:19:01.298Z,31.00
2022-09-15T12:21:41.388Z,31.10
2022-09-15T12:24:39.293Z,31.20
2022-09-15T12:27:11.982Z,31.40
2022-09-15T12:29:45.292Z,31.40
2022-09-15T12:32:34.326Z,31.40
2022-09-15T12:35:23.298Z,31.70
2022-09-15T12:38:06.269Z,32.00
2022-09-15T12:40:44.323Z,32.20
2022-09-15T12:43:17.312Z,32.20
2022-09-15T12:46:11.385Z,32.30
2022-09-15T12:48:45.611Z,32.40
2022-09-15T12:51:30.344Z,32.40
2022-09-15T12:54:03.475Z,32.30
2022-09-15T12:56:39.297Z,32.00
2022-09-15T12:59:14.334Z,32.00
2022-09-15T13:01:50.584Z,31.90
2022-09-15T13:04:58.345Z,32.10
2022-09-15T13:07:35.650Z,32.30
2022-09-15T13:10:15.332Z,32.30
2022-09-15T13:12:56.421Z,32.30
2022-09-15T13:15:29.374Z,32.40
2022-09-15T13:17:56.281Z,32.40
2022-09-15T13:20:35.371Z,32.50
2022-09-15T13:23:08.347Z,32.20
2022-09-15T13:25:35.214Z,32.30
2022-09-15T13:28:08.411Z,32.30
2022-09-15T13:30:44.256Z,32.30
2022-09-15T13:41:10.366Z,32.60
2022-09-15T13:44:26.385Z,32.30
2022-09-15T13:47:33.389Z,32.40
2022-09-15T13:50:43.375Z,32.30
2022-09-15T13:53:38.358Z,32.50
2022-09-15T13:56:21.797Z,32.50
2022-09-15T13:58:59.112Z,32.60
2022-09-15T14:01:41.619Z,32.80
2022-09-15T14:04:16.347Z,32.90
2022-09-15T14:06:58.511Z,32.70
2022-09-15T14:09:34.582Z,32.50
2022-09-15T14:12:16.387Z,32.60
2022-09-15T14:14:53.359Z,32.60
2022-09-15T14:17:34.435Z,32.70
2022-09-15T14:20:08.387Z,32.70
2022-09-15T14:22:35.270Z,32.60
2022-09-15T14:25:21.388Z,32.40
2022-09-15T14:27:57.442Z,32.50
2022-09-15T14:30:29.628Z,32.70
2022-09-15T14:33:09.427Z,32.80
2022-09-15T14:35:37.099Z,32.80
2022-09-15T14:38:10.427Z,32.90
2022-09-15T14:40:38.901Z,33.00
2022-09-15T14:43:40.415Z,33.00
2022-09-15T14:46:15.529Z,32.90
2022-09-15T14:48:49.434Z,32.90
2022-09-15T14:51:31.434Z,33.00
2022-09-15T14:53:58.290Z,33.10
2022-09-15T14:56:34.412Z,33.10
2022-09-15T14:59:23.426Z,33.10
2022-09-15T15:02:03.126Z,33.10
2022-09-15T15:04:46.387Z,33.10
2022-09-15T15:07:26.909Z,33.10
2022-09-15T15:10:08.422Z,33.10
2022-09-15T15:12:47.428Z,33.10
2022-09-15T15:15:21.506Z,32.90
2022-09-15T15:17:59.414Z,32.90
2022-09-15T15:20:29.918Z,32.80
2022-09-15T15:23:26.455Z,32.60
2022-09-15T15:25:53.669Z,32.50
2022-09-15T15:28:41.536Z,32.60
2022-09-15T15:31:20.594Z,32.70
2022-09-15T15:34:01.489Z,32.50
2022-09-15T15:36:29.299Z,32.50
2022-09-15T15:39:04.491Z,32.50
2022-09-15T15:41:41.968Z,32.50
2022-09-15T15:44:21.512Z,32.50
2022-09-15T15:46:49.702Z,32.60
2022-09-15T15:49:17.145Z,32.60
2022-09-15T15:51:50.526Z,32.50
2022-09-15T15:54:17.897Z,32.50
2022-09-15T15:56:45.002Z,32.30
2022-09-15T15:59:21.452Z,32.30
2022-09-15T16:01:51.995Z,32.20
2022-09-15T16:04:26.547Z,32.20
2022-09-15T16:06:53.598Z,32.00
2022-09-15T16:09:27.524Z,32.10
2022-09-15T16:11:54.727Z,32.20
2022-09-15T16:14:21.836Z,32.30
2022-09-15T16:16:58.238Z,32.30
2022-09-15T16:19:25.644Z,32.30
2022-09-15T16:21:52.935Z,32.20
2022-09-15T16:24:26.472Z,32.00
2022-09-15T16:26:59.546Z,31.70
2022-09-15T16:29:26.553Z,31.60
2022-09-15T16:31:53.628Z,31.50
2022-09-15T16:34:27.559Z,31.40
2022-09-15T16:36:54.512Z,31.40
2022-09-15T16:39:27.719Z,31.20
2022-09-15T16:41:54.747Z,31.00
2022-09-15T16:44:28.535Z,31.00
2022-09-15T16:47:01.760Z,31.00
2022-09-15T16:49:28.734Z,30.90
2022-09-15T16:52:02.532Z,30.70
2022-09-15T16:54:36.587Z,30.60
2022-09-15T16:57:03.857Z,30.50
2022-09-15T16:59:37.599Z,30.50
2022-09-15T17:02:12.171Z,30.40
2022-09-15T17:04:45.567Z,30.40
2022-09-15T17:07:12.563Z,30.20
2022-09-15T17:09:39.479Z,30.10
2022-09-15T17:12:15.562Z,30.00
2022-09-15T17:14:42.484Z,29.90
2022-09-15T17:17:30.539Z,29.80
2022-09-15T17:19:57.425Z,29.70
2022-09-15T17:22:24.327Z,29.60
2022-09-15T17:24:57.560Z,29.40
2022-09-15T17:27:24.515Z,29.30
2022-09-15T17:30:06.600Z,29.30
2022-09-15T17:32:40.435Z,29.30
2022-09-15T17:35:33.564Z,29.20
2022-09-15T17:38:00.765Z,29.10
2022-09-15T17:40:27.891Z,28.90
2022-09-15T17:43:01.664Z,28.80
2022-09-15T17:45:36.411Z,28.70
2022-09-15T17:48:10.537Z,28.60
2022-09-15T17:50:37.617Z,28.50
2022-09-15T17:53:18.601Z,28.40
2022-09-15T17:55:51.604Z,28.30
2022-09-15T17:58:18.664Z,28.20
2022-09-15T18:00:52.611Z,28.10
2022-09-15T18:03:31.659Z,28.10
2022-09-15T18:06:06.590Z,28.00
2022-09-15T18:08:33.941Z,28.00
2022-09-15T18:11:01.147Z,28.00
2022-09-15T18:13:35.625Z,27.90
2022-09-15T18:16:13.677Z,27.90
2022-09-15T18:18:40.686Z,27.70
2022-09-15T18:21:15.644Z,27.30
2022-09-15T18:23:42.664Z,27.00
2022-09-15T18:26:16.617Z,26.60
2022-09-15T18:28:51.663Z,26.30
2022-09-15T18:31:18.610Z,26.10
2022-09-15T18:33:51.601Z,26.00
2022-09-15T18:36:18.555Z,25.80
2022-09-15T18:38:45.756Z,25.60
2022-09-15T18:41:19.647Z,25.30
2022-09-15T18:43:47.848Z,25.10
2022-09-15T18:46:21.688Z,24.90
2022-09-15T18:48:55.785Z,24.80
2022-09-15T18:51:29.040Z,24.60
2022-09-15T18:54:08.587Z,24.40
2022-09-15T18:56:35.432Z,24.40
2022-09-15T18:59:08.633Z,24.40
2022-09-15T19:01:35.645Z,24.40
2022-09-15T19:04:09.648Z,24.40
2022-09-15T19:06:36.564Z,24.20
2022-09-15T19:09:03.457Z,24.20
2022-09-15T19:11:36.625Z,24.30
2022-09-15T19:14:03.544Z,24.40
2022-09-15T19:16:56.449Z,24.50
2022-09-15T19:19:24.116Z,24.20
2022-09-15T19:21:57.621Z,24.00
2022-09-15T19:24:24.701Z,23.80
2022-09-15T19:26:58.680Z,23.80
2022-09-15T19:29:25.626Z,23.60
2022-09-15T19:31:58.724Z,23.50
2022-09-15T19:34:25.607Z,23.50
2022-09-15T19:36:52.475Z,23.30
2022-09-15T19:39:25.623Z,23.10
2022-09-15T19:41:58.656Z,22.80
2022-09-15T19:44:31.664Z,22.60
2022-09-15T19:46:58.673Z,22.60
2022-09-15T19:49:32.713Z,22.70
2022-09-15T19:51:59.621Z,22.60
2022-09-15T19:54:34.679Z,22.80
2022-09-15T19:57:02.016Z,22.90
2022-09-15T19:59:35.663Z,23.20
2022-09-15T20:02:02.627Z,23.30
2022-09-15T20:04:29.576Z,23.50
2022-09-15T20:07:02.659Z,23.60
2022-09-15T20:09:35.663Z,23.50
2022-09-15T20:12:02.892Z,23.50
2022-09-15T20:14:37.677Z,23.50
2022-09-15T20:17:05.095Z,23.50
2022-09-15T20:19:38.644Z,23.40
2022-09-15T20:22:05.564Z,23.40
2022-09-15T20:24:38.662Z,23.30
2022-09-15T20:27:05.752Z,23.00
2022-09-15T20:29:32.632Z,23.00
2022-09-15T20:32:05.639Z,22.90
2022-09-15T20:34:32.540Z,22.70
2022-09-15T20:37:05.689Z,22.60
2022-09-15T20:39:32.601Z,22.50
2022-09-15T20:42:05.705Z,22.50
2022-09-15T20:44:38.715Z,22.50
2022-09-15T20:47:05.752Z,22.40
2022-09-15T20:49:38.662Z,22.40
2022-09-15T20:52:05.537Z,22.40
2022-09-15T20:54:32.774Z,22.40
2022-09-15T20:57:05.686Z,22.40
2022-09-15T20:59:32.566Z,22.30
2022-09-15T21:02:05.766Z,22.20
2022-09-15T21:04:32.764Z,22.00
2022-09-15T21:07:05.691Z,21.90
2022-09-15T21:09:32.523Z,21.80
2022-09-15T21:12:05.697Z,21.80
2022-09-15T21:14:32.547Z,21.80
2022-09-15T21:16:59.421Z,21.90
2022-09-15T21:19:32.707Z,22.00
2022-09-15T21:21:59.631Z,22.00
2022-09-15T21:24:32.732Z,22.10
2022-09-15T21:26:59.567Z,22.10
2022-09-15T21:29:33.707Z,22.10
2022-09-15T21:32:06.771Z,21.90
2022-09-15T21:34:33.630Z,21.80
2022-09-15T21:37:06.750Z,21.80
2022-09-15T21:39:33.610Z,21.80
2022-09-15T21:42:00.439Z,21.70
2022-09-15T21:44:33.706Z,21.60
2022-09-15T21:47:00.567Z,21.60
2022-09-15T21:49:33.728Z,21.50
2022-09-15T21:52:06.714Z,21.40
2022-09-15T21:54:33.631Z,21.50
2022-09-15T21:57:06.704Z,21.50
2022-09-15T21:59:33.561Z,21.30
2022-09-15T22:02:06.763Z,21.30
2022-09-15T22:04:40.691Z,21.40
2022-09-15T22:07:07.591Z,21.20
2022-09-15T22:09:40.764Z,21.20
2022-09-15T22:12:07.712Z,21.00
2022-09-15T22:14:41.737Z,20.90
2022-09-15T22:17:08.634Z,20.90
2022-09-15T22:19:41.753Z,21.00
2022-09-15T22:22:08.594Z,21.10
2022-09-15T22:24:35.500Z,21.10
2022-09-15T22:27:08.741Z,21.20
2022-09-15T22:29:35.603Z,21.20
2022-09-15T22:32:02.711Z,21.30
2022-09-15T22:34:35.765Z,21.20
2022-09-15T22:37:08.752Z,21.20
2022-09-15T22:39:58.125Z,21.20
2022-09-15T22:42:28.751Z,21.30
2022-09-15T22:45:01.757Z,21.10
2022-09-15T22:47:34.739Z,20.90
2022-09-15T22:50:01.594Z,20.90
2022-09-15T22:52:34.740Z,20.80
2022-09-15T22:55:01.572Z,20.80
2022-09-15T22:57:28.434Z,20.90
2022-09-15T23:00:01.746Z,20.60
2022-09-15T23:02:28.667Z,20.40
2022-09-15T23:04:55.725Z,20.40
2022-09-15T23:07:28.781Z,20.30
2022-09-15T23:09:55.659Z,20.30
2022-09-15T23:12:28.777Z,20.30
2022-09-15T23:14:55.632Z,20.20
2022-09-15T23:17:28.799Z,20.00
2022-09-15T23:20:01.809Z,19.90
2022-09-15T23:22:34.840Z,19.90
2022-09-15T23:25:01.705Z,19.80
2022-09-15T23:27:34.790Z,19.80
2022-09-15T23:30:01.717Z,19.60
2022-09-15T23:32:34.819Z,19.60
2022-09-15T23:35:09.099Z,19.80
2022-09-15T23:37:42.794Z,19.90
2022-09-15T23:40:16.842Z,20.10
2022-09-15T23:42:43.709Z,20.10
2022-09-15T23:45:17.785Z,20.00
2022-09-15T23:47:44.697Z,19.90
2022-09-15T23:50:17.808Z,19.70
2022-09-15T23:52:44.682Z,19.50
2022-09-15T23:55:11.742Z,19.40
2022-09-15T23:57:44.808Z,19.50
